sensor_id;sensor_type;location;lat;lon;timestamp;pressure;altitude;pressure_sealevel;temperature;humidity
72892;BME280;61032;50.782;6.818;2023-08-07T00:00:35;100251.19;;;13.26;85.18
72892;BME280;61032;50.782;6.818;2023-08-07T00:01:35;100253.59;;;13.27;85.73
72892;BME280;61032;50.782;6.818;2023-08-07T00:02:35;100257.59;;;13.30;85.54
72892;BME280;61032;50.782;6.818;2023-08-07T00:03:36;100258.47;;;13.34;84.68
72892;BME280;61032;50.782;6.818;2023-08-07T00:04:36;100250.47;;;13.29;84.64
72892;BME280;61032;50.782;6.818;2023-08-07T00:05:37;100263.91;;;13.30;84.95
72892;BME280;61032;50.782;6.818;2023-08-07T00:06:37;100251.63;;;13.28;84.46
72892;BME280;61032;50.782;6.818;2023-08-07T00:07:38;100262.69;;;13.28;84.57
72892;BME280;61032;50.782;6.818;2023-08-07T00:08:38;100258.31;;;13.27;84.77
72892;BME280;61032;50.782;6.818;2023-08-07T00:09:39;100251.88;;;13.23;84.68
72892;BME280;61032;50.782;6.818;2023-08-07T00:10:39;100252.69;;;13.23;84.34
72892;BME280;61032;50.782;6.818;2023-08-07T00:11:40;100255.19;;;13.28;84.32
72892;BME280;61032;50.782;6.818;2023-08-07T00:12:41;100252.34;;;13.25;84.07
72892;BME280;61032;50.782;6.818;2023-08-07T00:13:41;100244.06;;;13.25;83.65
72892;BME280;61032;50.782;6.818;2023-08-07T00:14:42;100250.84;;;13.27;84.00
72892;BME280;61032;50.782;6.818;2023-08-07T00:15:42;100253.50;;;13.24;84.09
72892;BME280;61032;50.782;6.818;2023-08-07T00:16:43;100248.78;;;13.24;84.61
72892;BME280;61032;50.782;6.818;2023-08-07T00:17:43;100251.72;;;13.31;84.23
72892;BME280;61032;50.782;6.818;2023-08-07T00:18:43;100259.91;;;13.28;84.26
72892;BME280;61032;50.782;6.818;2023-08-07T00:19:44;100249.69;;;13.28;84.35
72892;BME280;61032;50.782;6.818;2023-08-07T00:20:44;100255.91;;;13.25;84.16
72892;BME280;61032;50.782;6.818;2023-08-07T00:21:44;100244.97;;;13.29;84.39
72892;BME280;61032;50.782;6.818;2023-08-07T00:22:44;100248.94;;;13.31;83.90
72892;BME280;61032;50.782;6.818;2023-08-07T00:23:45;100244.31;;;13.35;84.01
72892;BME280;61032;50.782;6.818;2023-08-07T00:24:45;100244.56;;;13.30;83.95
72892;BME280;61032;50.782;6.818;2023-08-07T00:25:45;100252.00;;;13.26;84.06
72892;BME280;61032;50.782;6.818;2023-08-07T00:26:46;100250.03;;;13.27;84.41
72892;BME280;61032;50.782;6.818;2023-08-07T00:27:46;100256.97;;;13.21;84.30
72892;BME280;61032;50.782;6.818;2023-08-07T00:28:47;100248.22;;;13.19;84.32
72892;BME280;61032;50.782;6.818;2023-08-07T00:29:47;100250.63;;;13.20;84.63
72892;BME280;61032;50.782;6.818;2023-08-07T00:30:47;100251.78;;;13.19;84.60
72892;BME280;61032;50.782;6.818;2023-08-07T00:31:48;100255.00;;;13.21;84.45
72892;BME280;61032;50.782;6.818;2023-08-07T00:32:48;100246.38;;;13.23;84.12
72892;BME280;61032;50.782;6.818;2023-08-07T00:33:48;100248.78;;;13.24;84.06
72892;BME280;61032;50.782;6.818;2023-08-07T00:34:51;100246.47;;;13.26;84.08
72892;BME280;61032;50.782;6.818;2023-08-07T00:35:52;100253.25;;;13.29;83.61
72892;BME280;61032;50.782;6.818;2023-08-07T00:36:52;100254.03;;;13.29;84.29
72892;BME280;61032;50.782;6.818;2023-08-07T00:37:53;100260.38;;;13.30;83.84
72892;BME280;61032;50.782;6.818;2023-08-07T00:38:53;100246.97;;;13.32;83.97
72892;BME280;61032;50.782;6.818;2023-08-07T00:39:53;100240.59;;;13.28;83.97
72892;BME280;61032;50.782;6.818;2023-08-07T00:40:54;100244.06;;;13.25;83.79
72892;BME280;61032;50.782;6.818;2023-08-07T00:41:54;100258.22;;;13.23;84.29
72892;BME280;61032;50.782;6.818;2023-08-07T00:42:55;100258.56;;;13.22;84.54
72892;BME280;61032;50.782;6.818;2023-08-07T00:43:55;100253.97;;;13.14;84.73
72892;BME280;61032;50.782;6.818;2023-08-07T00:44:56;100255.13;;;13.13;84.75
72892;BME280;61032;50.782;6.818;2023-08-07T00:45:56;100251.00;;;13.19;84.99
72892;BME280;61032;50.782;6.818;2023-08-07T00:46:57;100257.41;;;13.23;84.47
72892;BME280;61032;50.782;6.818;2023-08-07T00:47:58;100252.25;;;13.21;84.17
72892;BME280;61032;50.782;6.818;2023-08-07T00:48:58;100262.84;;;13.19;84.39
72892;BME280;61032;50.782;6.818;2023-08-07T00:49:59;100257.66;;;13.18;84.94
72892;BME280;61032;50.782;6.818;2023-08-07T00:51:00;100256.84;;;13.17;84.70
72892;BME280;61032;50.782;6.818;2023-08-07T00:52:01;100258.91;;;13.20;84.65
72892;BME280;61032;50.782;6.818;2023-08-07T00:53:02;100257.31;;;13.19;84.52
72892;BME280;61032;50.782;6.818;2023-08-07T00:54:04;100262.03;;;13.19;84.74
72892;BME280;61032;50.782;6.818;2023-08-07T00:55:05;100261.31;;;13.22;84.61
72892;BME280;61032;50.782;6.818;2023-08-07T00:56:06;100260.78;;;13.16;84.67
72892;BME280;61032;50.782;6.818;2023-08-07T00:57:10;100265.13;;;13.17;84.48
72892;BME280;61032;50.782;6.818;2023-08-07T00:58:12;100268.44;;;13.23;84.63
72892;BME280;61032;50.782;6.818;2023-08-07T00:59:13;100261.69;;;13.20;84.77
72892;BME280;61032;50.782;6.818;2023-08-07T01:00:14;100264.34;;;13.17;84.82
72892;BME280;61032;50.782;6.818;2023-08-07T01:01:16;100256.72;;;13.26;84.45
72892;BME280;61032;50.782;6.818;2023-08-07T01:02:16;100273.97;;;13.23;83.52
72892;BME280;61032;50.782;6.818;2023-08-07T01:03:17;100268.91;;;13.25;83.80
72892;BME280;61032;50.782;6.818;2023-08-07T01:04:17;100263.72;;;13.23;83.79
72892;BME280;61032;50.782;6.818;2023-08-07T01:05:18;100272.81;;;13.24;83.91
72892;BME280;61032;50.782;6.818;2023-08-07T01:06:19;100265.44;;;13.28;83.72
72892;BME280;61032;50.782;6.818;2023-08-07T01:07:20;100263.03;;;13.26;83.33
72892;BME280;61032;50.782;6.818;2023-08-07T01:08:20;100276.03;;;13.26;83.17
72892;BME280;61032;50.782;6.818;2023-08-07T01:09:20;100270.41;;;13.22;83.47
72892;BME280;61032;50.782;6.818;2023-08-07T01:10:41;100275.94;;;13.22;83.95
72892;BME280;61032;50.782;6.818;2023-08-07T01:11:57;100278.16;;;13.32;83.30
72892;BME280;61032;50.782;6.818;2023-08-07T01:13:19;100277.44;;;13.20;83.66
72892;BME280;61032;50.782;6.818;2023-08-07T01:14:35;100278.59;;;13.19;84.04
72892;BME280;61032;50.782;6.818;2023-08-07T01:15:38;100279.41;;;13.19;84.14
72892;BME280;61032;50.782;6.818;2023-08-07T01:17:06;100279.03;;;13.21;83.51
72892;BME280;61032;50.782;6.818;2023-08-07T01:18:08;100280.28;;;13.23;83.54
72892;BME280;61032;50.782;6.818;2023-08-07T01:19:30;100273.28;;;13.26;83.58
72892;BME280;61032;50.782;6.818;2023-08-07T01:20:32;100274.88;;;13.27;83.40
72892;BME280;61032;50.782;6.818;2023-08-07T01:21:32;100273.72;;;13.28;83.50
72892;BME280;61032;50.782;6.818;2023-08-07T01:22:32;100273.63;;;13.24;83.46
72892;BME280;61032;50.782;6.818;2023-08-07T01:23:33;100278.00;;;13.25;83.70
72892;BME280;61032;50.782;6.818;2023-08-07T01:24:34;100280.19;;;13.20;83.67
72892;BME280;61032;50.782;6.818;2023-08-07T01:25:35;100281.69;;;13.17;83.82
72892;BME280;61032;50.782;6.818;2023-08-07T01:26:38;100281.69;;;13.17;84.08
72892;BME280;61032;50.782;6.818;2023-08-07T01:29:24;100284.56;;;13.21;84.04
72892;BME280;61032;50.782;6.818;2023-08-07T01:31:33;100289.53;;;13.15;84.40
72892;BME280;61032;50.782;6.818;2023-08-07T01:32:47;100283.31;;;13.18;84.91
72892;BME280;61032;50.782;6.818;2023-08-07T01:34:04;100284.09;;;13.19;84.14
72892;BME280;61032;50.782;6.818;2023-08-07T01:35:05;100284.81;;;13.16;84.30
72892;BME280;61032;50.782;6.818;2023-08-07T01:36:08;100281.81;;;13.21;84.16
72892;BME280;61032;50.782;6.818;2023-08-07T01:37:10;100282.38;;;13.14;84.28
72892;BME280;61032;50.782;6.818;2023-08-07T01:38:12;100273.41;;;13.17;84.38
72892;BME280;61032;50.782;6.818;2023-08-07T01:39:13;100269.50;;;13.18;84.10
72892;BME280;61032;50.782;6.818;2023-08-07T01:40:27;100279.41;;;13.19;83.96
72892;BME280;61032;50.782;6.818;2023-08-07T01:41:28;100273.06;;;13.19;83.50
72892;BME280;61032;50.782;6.818;2023-08-07T01:42:29;100276.28;;;13.21;83.18
72892;BME280;61032;50.782;6.818;2023-08-07T01:43:29;100272.00;;;13.23;83.38
72892;BME280;61032;50.782;6.818;2023-08-07T01:44:31;100270.97;;;13.28;83.21
72892;BME280;61032;50.782;6.818;2023-08-07T01:45:32;100271.75;;;13.28;83.09
72892;BME280;61032;50.782;6.818;2023-08-07T01:46:32;100276.03;;;13.26;82.65
72892;BME280;61032;50.782;6.818;2023-08-07T01:47:34;100267.03;;;13.29;82.91
72892;BME280;61032;50.782;6.818;2023-08-07T01:48:34;100267.91;;;13.33;82.86
72892;BME280;61032;50.782;6.818;2023-08-07T01:49:34;100276.56;;;13.31;82.88
72892;BME280;61032;50.782;6.818;2023-08-07T01:50:35;100268.28;;;13.31;82.79
72892;BME280;61032;50.782;6.818;2023-08-07T01:51:36;100272.63;;;13.32;83.18
72892;BME280;61032;50.782;6.818;2023-08-07T01:52:36;100277.00;;;13.33;82.85
72892;BME280;61032;50.782;6.818;2023-08-07T01:53:36;100280.03;;;13.28;82.76
72892;BME280;61032;50.782;6.818;2023-08-07T01:54:37;100285.22;;;13.30;83.27
72892;BME280;61032;50.782;6.818;2023-08-07T01:55:37;100280.47;;;13.30;82.90
72892;BME280;61032;50.782;6.818;2023-08-07T01:56:37;100271.13;;;13.35;82.80
72892;BME280;61032;50.782;6.818;2023-08-07T01:57:37;100284.94;;;13.35;82.12
72892;BME280;61032;50.782;6.818;2023-08-07T01:58:38;100291.16;;;13.32;82.30
72892;BME280;61032;50.782;6.818;2023-08-07T01:59:39;100278.91;;;13.29;82.51
72892;BME280;61032;50.782;6.818;2023-08-07T02:00:40;100281.28;;;13.31;82.69
72892;BME280;61032;50.782;6.818;2023-08-07T02:01:40;100280.47;;;13.30;82.22
72892;BME280;61032;50.782;6.818;2023-08-07T02:02:40;100292.41;;;13.34;82.23
72892;BME280;61032;50.782;6.818;2023-08-07T02:03:41;100278.91;;;13.29;82.00
72892;BME280;61032;50.782;6.818;2023-08-07T02:04:41;100281.38;;;13.34;81.68
72892;BME280;61032;50.782;6.818;2023-08-07T02:05:41;100294.72;;;13.32;81.75
72892;BME280;61032;50.782;6.818;2023-08-07T02:06:41;100284.03;;;13.31;81.68
72892;BME280;61032;50.782;6.818;2023-08-07T02:07:42;100293.50;;;13.30;81.80
72892;BME280;61032;50.782;6.818;2023-08-07T02:08:43;100285.63;;;13.32;81.65
72892;BME280;61032;50.782;6.818;2023-08-07T02:09:43;100285.63;;;13.32;81.93
72892;BME280;61032;50.782;6.818;2023-08-07T02:10:44;100288.06;;;13.33;81.60
72892;BME280;61032;50.782;6.818;2023-08-07T02:11:44;100283.50;;;13.25;81.94
72892;BME280;61032;50.782;6.818;2023-08-07T02:12:45;100289.38;;;13.24;82.15
72892;BME280;61032;50.782;6.818;2023-08-07T02:13:45;100280.84;;;13.29;81.65
72892;BME280;61032;50.782;6.818;2023-08-07T02:14:46;100290.75;;;13.30;81.73
72892;BME280;61032;50.782;6.818;2023-08-07T02:15:46;100292.75;;;13.33;81.62
72892;BME280;61032;50.782;6.818;2023-08-07T02:16:47;100271.47;;;13.33;82.06
72892;BME280;61032;50.782;6.818;2023-08-07T02:17:47;100291.16;;;13.32;81.91
72892;BME280;61032;50.782;6.818;2023-08-07T02:18:47;100287.25;;;13.33;82.30
72892;BME280;61032;50.782;6.818;2023-08-07T02:19:48;100277.34;;;13.32;82.14
72892;BME280;61032;50.782;6.818;2023-08-07T02:20:48;100291.91;;;13.29;82.61
72892;BME280;61032;50.782;6.818;2023-08-07T02:21:48;100293.22;;;13.35;82.41
72892;BME280;61032;50.782;6.818;2023-08-07T02:22:49;100291.72;;;13.37;82.10
72892;BME280;61032;50.782;6.818;2023-08-07T02:23:49;100294.66;;;13.29;82.18
72892;BME280;61032;50.782;6.818;2023-08-07T02:24:49;100296.34;;;13.33;81.76
72892;BME280;61032;50.782;6.818;2023-08-07T02:25:51;100290.75;;;13.30;81.81
72892;BME280;61032;50.782;6.818;2023-08-07T02:26:51;100284.94;;;13.35;81.94
72892;BME280;61032;50.782;6.818;2023-08-07T02:27:51;100302.66;;;13.34;81.85
72892;BME280;61032;50.782;6.818;2023-08-07T02:28:52;100298.03;;;13.38;82.10
72892;BME280;61032;50.782;6.818;2023-08-07T02:29:52;100294.66;;;13.29;81.84
72892;BME280;61032;50.782;6.818;2023-08-07T02:30:53;100296.97;;;13.27;82.00
72892;BME280;61032;50.782;6.818;2023-08-07T02:31:54;100291.09;;;13.28;81.74
72892;BME280;61032;50.782;6.818;2023-08-07T02:32:54;100299.72;;;13.27;82.15
72892;BME280;61032;50.782;6.818;2023-08-07T02:33:55;100300.88;;;13.26;82.23
72892;BME280;61032;50.782;6.818;2023-08-07T02:34:55;100302.22;;;13.32;82.25
72892;BME280;61032;50.782;6.818;2023-08-07T02:35:56;100305.78;;;13.32;82.08
72892;BME280;61032;50.782;6.818;2023-08-07T02:36:57;100305.53;;;13.37;81.90
72892;BME280;61032;50.782;6.818;2023-08-07T02:37:58;100316.22;;;13.39;81.74
72892;BME280;61032;50.782;6.818;2023-08-07T02:38:58;100306.44;;;13.41;81.24
72892;BME280;61032;50.782;6.818;2023-08-07T02:39:58;100296.44;;;13.37;81.12
72892;BME280;61032;50.782;6.818;2023-08-07T02:40:59;100305.16;;;13.39;81.35
72892;BME280;61032;50.782;6.818;2023-08-07T02:41:59;100310.34;;;13.40;81.37
72892;BME280;61032;50.782;6.818;2023-08-07T02:42:59;100300.34;;;13.36;81.34
72892;BME280;61032;50.782;6.818;2023-08-07T02:44:00;100299.03;;;13.30;81.42
72892;BME280;61032;50.782;6.818;2023-08-07T02:45:00;100305.06;;;13.35;81.52
72892;BME280;61032;50.782;6.818;2023-08-07T02:46:00;100297.25;;;13.37;81.37
72892;BME280;61032;50.782;6.818;2023-08-07T02:47:01;100304.63;;;13.33;81.56
72892;BME280;61032;50.782;6.818;2023-08-07T02:48:01;100304.25;;;13.35;82.19
72892;BME280;61032;50.782;6.818;2023-08-07T02:49:02;100301.94;;;13.37;81.56
72892;BME280;61032;50.782;6.818;2023-08-07T02:50:03;100297.94;;;13.34;81.30
72892;BME280;61032;50.782;6.818;2023-08-07T02:51:03;100298.28;;;13.33;81.95
72892;BME280;61032;50.782;6.818;2023-08-07T02:52:04;100302.66;;;13.34;81.50
72892;BME280;61032;50.782;6.818;2023-08-07T02:53:04;100291.44;;;13.27;81.77
72892;BME280;61032;50.782;6.818;2023-08-07T02:54:04;100300.19;;;13.29;81.73
72892;BME280;61032;50.782;6.818;2023-08-07T02:55:05;100297.41;;;13.29;81.62
72892;BME280;61032;50.782;6.818;2023-08-07T02:56:06;100309.16;;;13.26;81.68
72892;BME280;61032;50.782;6.818;2023-08-07T02:57:06;100308.47;;;13.29;81.61
72892;BME280;61032;50.782;6.818;2023-08-07T02:58:06;100304.97;;;13.32;81.44
72892;BME280;61032;50.782;6.818;2023-08-07T02:59:08;100298.56;;;13.28;81.22
72892;BME280;61032;50.782;6.818;2023-08-07T03:00:08;100300.19;;;13.29;81.80
72892;BME280;61032;50.782;6.818;2023-08-07T03:01:09;100306.41;;;13.26;81.65
72892;BME280;61032;50.782;6.818;2023-08-07T03:02:09;100307.91;;;13.23;81.69
72892;BME280;61032;50.782;6.818;2023-08-07T03:03:09;100303.28;;;13.27;81.65
72892;BME280;61032;50.782;6.818;2023-08-07T03:04:10;100313.19;;;13.28;81.69
72892;BME280;61032;50.782;6.818;2023-08-07T03:05:11;100313.06;;;13.25;81.66
72892;BME280;61032;50.782;6.818;2023-08-07T03:06:11;100300.69;;;13.19;81.72
72892;BME280;61032;50.782;6.818;2023-08-07T03:07:11;100305.50;;;13.22;81.77
72892;BME280;61032;50.782;6.818;2023-08-07T03:08:12;100314.69;;;13.26;81.95
72892;BME280;61032;50.782;6.818;2023-08-07T03:09:12;100302.38;;;13.23;82.20
72892;BME280;61032;50.782;6.818;2023-08-07T03:10:13;100310.78;;;13.27;81.79
72892;BME280;61032;50.782;6.818;2023-08-07T03:11:13;100312.06;;;13.17;81.89
72892;BME280;61032;50.782;6.818;2023-08-07T03:12:13;100302.97;;;13.17;82.48
72892;BME280;61032;50.782;6.818;2023-08-07T03:13:14;100315.84;;;13.25;82.48
72892;BME280;61032;50.782;6.818;2023-08-07T03:14:15;100299.72;;;13.27;82.47
72892;BME280;61032;50.782;6.818;2023-08-07T03:15:15;100312.38;;;13.28;82.39
72892;BME280;61032;50.782;6.818;2023-08-07T03:16:16;100318.16;;;13.23;82.41
72892;BME280;61032;50.782;6.818;2023-08-07T03:17:17;100303.19;;;13.24;82.72
72892;BME280;61032;50.782;6.818;2023-08-07T03:18:17;100306.09;;;13.15;82.63
72892;BME280;61032;50.782;6.818;2023-08-07T03:19:17;100304.69;;;13.21;82.97
72892;BME280;61032;50.782;6.818;2023-08-07T03:20:21;100304.78;;;13.25;82.46
72892;BME280;61032;50.782;6.818;2023-08-07T03:21:21;100307.56;;;13.25;82.44
72892;BME280;61032;50.782;6.818;2023-08-07T03:22:22;100307.91;;;13.23;82.18
72892;BME280;61032;50.782;6.818;2023-08-07T03:23:23;100306.19;;;13.19;82.47
72892;BME280;61032;50.782;6.818;2023-08-07T03:24:24;100308.97;;;13.19;82.94
72892;BME280;61032;50.782;6.818;2023-08-07T03:25:24;100307.81;;;13.20;83.30
72892;BME280;61032;50.782;6.818;2023-08-07T03:26:24;100313.31;;;13.20;82.68
72892;BME280;61032;50.782;6.818;2023-08-07T03:27:25;100312.53;;;13.19;83.01
72892;BME280;61032;50.782;6.818;2023-08-07T03:28:25;100305.50;;;13.22;83.17
72892;BME280;61032;50.782;6.818;2023-08-07T03:29:26;100308.97;;;13.19;82.78
72892;BME280;61032;50.782;6.818;2023-08-07T03:30:26;100319.28;;;13.22;82.98
72892;BME280;61032;50.782;6.818;2023-08-07T03:31:27;100312.41;;;13.16;82.98
72892;BME280;61032;50.782;6.818;2023-08-07T03:32:27;100307.09;;;13.11;83.49
72892;BME280;61032;50.782;6.818;2023-08-07T03:33:28;100308.72;;;13.12;84.15
72892;BME280;61032;50.782;6.818;2023-08-07T03:34:28;100314.25;;;13.12;84.11
72892;BME280;61032;50.782;6.818;2023-08-07T03:35:29;100323.78;;;13.14;84.32
72892;BME280;61032;50.782;6.818;2023-08-07T03:36:29;100317.72;;;13.08;84.46
72892;BME280;61032;50.782;6.818;2023-08-07T03:37:29;100322.06;;;13.09;85.00
72892;BME280;61032;50.782;6.818;2023-08-07T03:38:30;100316.13;;;13.07;84.71
72892;BME280;61032;50.782;6.818;2023-08-07T03:39:30;100308.78;;;12.99;85.25
72892;BME280;61032;50.782;6.818;2023-08-07T03:40:30;100316.25;;;12.99;85.48
72892;BME280;61032;50.782;6.818;2023-08-07T03:41:31;100320.06;;;12.94;85.53
72892;BME280;61032;50.782;6.818;2023-08-07T03:42:31;100317.66;;;12.93;85.54
72892;BME280;61032;50.782;6.818;2023-08-07T03:43:31;100318.47;;;12.93;86.04
72892;BME280;61032;50.782;6.818;2023-08-07T03:44:32;100314.75;;;13.01;86.02
72892;BME280;61032;50.782;6.818;2023-08-07T03:45:34;100323.84;;;13.02;85.40
72892;BME280;61032;50.782;6.818;2023-08-07T03:46:35;100326.72;;;12.93;85.96
72892;BME280;61032;50.782;6.818;2023-08-07T03:47:35;100318.50;;;12.81;86.14
72892;BME280;61032;50.782;6.818;2023-08-07T03:48:35;100313.56;;;12.87;86.65
72892;BME280;61032;50.782;6.818;2023-08-07T03:49:36;100316.75;;;12.89;86.42
72892;BME280;61032;50.782;6.818;2023-08-07T03:50:36;100308.84;;;12.87;86.35
72892;BME280;61032;50.782;6.818;2023-08-07T03:51:37;100329.66;;;12.85;87.01
72892;BME280;61032;50.782;6.818;2023-08-07T03:52:38;100320.56;;;12.84;86.92
72892;BME280;61032;50.782;6.818;2023-08-07T03:53:38;100322.88;;;12.82;87.17
72892;BME280;61032;50.782;6.818;2023-08-07T03:54:39;100332.31;;;12.81;87.52
72892;BME280;61032;50.782;6.818;2023-08-07T03:55:39;100324.59;;;12.87;87.29
72892;BME280;61032;50.782;6.818;2023-08-07T03:56:41;100338.72;;;12.85;87.43
72892;BME280;61032;50.782;6.818;2023-08-07T03:57:41;100332.94;;;12.90;87.79
72892;BME280;61032;50.782;6.818;2023-08-07T03:58:41;100333.22;;;12.85;88.09
72892;BME280;61032;50.782;6.818;2023-08-07T03:59:42;100333.69;;;12.87;87.61
72892;BME280;61032;50.782;6.818;2023-08-07T04:00:42;100329.03;;;12.91;87.69
72892;BME280;61032;50.782;6.818;2023-08-07T04:01:42;100330.81;;;12.84;88.00
72892;BME280;61032;50.782;6.818;2023-08-07T04:02:43;100338.28;;;12.83;88.50
72892;BME280;61032;50.782;6.818;2023-08-07T04:03:46;100340.59;;;12.81;89.14
72892;BME280;61032;50.782;6.818;2023-08-07T04:04:47;100333.91;;;12.82;89.60
72892;BME280;61032;50.782;6.818;2023-08-07T04:05:51;100335.75;;;12.78;89.91
72892;BME280;61032;50.782;6.818;2023-08-07T04:06:52;100335.75;;;12.78;90.52
72892;BME280;61032;50.782;6.818;2023-08-07T04:07:52;100337.84;;;12.69;90.76
72892;BME280;61032;50.782;6.818;2023-08-07T04:08:52;100335.56;;;12.59;91.24
72892;BME280;61032;50.782;6.818;2023-08-07T04:09:53;100333.97;;;12.58;92.05
72892;BME280;61032;50.782;6.818;2023-08-07T04:11:03;100333.84;;;12.54;92.51
72892;BME280;61032;50.782;6.818;2023-08-07T04:12:04;100345.44;;;12.48;92.69
72892;BME280;61032;50.782;6.818;2023-08-07T04:13:04;100337.91;;;12.45;93.25
72892;BME280;61032;50.782;6.818;2023-08-07T04:14:04;100332.47;;;12.48;93.22
72892;BME280;61032;50.782;6.818;2023-08-07T04:15:05;100326.88;;;12.45;93.03
72892;BME280;61032;50.782;6.818;2023-08-07T04:16:07;100333.19;;;12.45;93.50
72892;BME280;61032;50.782;6.818;2023-08-07T04:17:08;100338.00;;;12.48;93.34
72892;BME280;61032;50.782;6.818;2023-08-07T04:18:08;100327.22;;;12.43;93.54
72892;BME280;61032;50.782;6.818;2023-08-07T04:19:08;100339.06;;;12.44;93.44
72892;BME280;61032;50.782;6.818;2023-08-07T04:20:09;100333.63;;;12.47;92.90
72892;BME280;61032;50.782;6.818;2023-08-07T04:21:10;100333.28;;;12.49;92.66
72892;BME280;61032;50.782;6.818;2023-08-07T04:22:10;100328.91;;;12.48;92.39
72892;BME280;61032;50.782;6.818;2023-08-07T04:23:10;100334.00;;;12.46;91.85
72892;BME280;61032;50.782;6.818;2023-08-07T04:24:11;100327.69;;;12.45;92.15
72892;BME280;61032;50.782;6.818;2023-08-07T04:25:11;100330.97;;;12.51;91.89
72892;BME280;61032;50.782;6.818;2023-08-07T04:26:12;100329.81;;;12.52;91.16
72892;BME280;61032;50.782;6.818;2023-08-07T04:27:12;100336.72;;;12.58;90.92
72892;BME280;61032;50.782;6.818;2023-08-07T04:28:13;100325.47;;;12.51;90.49
72892;BME280;61032;50.782;6.818;2023-08-07T04:29:13;100326.84;;;12.57;90.18
72892;BME280;61032;50.782;6.818;2023-08-07T04:30:14;100331.22;;;12.58;90.00
72892;BME280;61032;50.782;6.818;2023-08-07T04:31:14;100339.72;;;12.65;89.45
72892;BME280;61032;50.782;6.818;2023-08-07T04:32:14;100340.16;;;12.67;89.47
72892;BME280;61032;50.782;6.818;2023-08-07T04:33:14;100345.69;;;12.67;89.17
72892;BME280;61032;50.782;6.818;2023-08-07T04:34:15;100340.84;;;12.64;88.82
72892;BME280;61032;50.782;6.818;2023-08-07T04:35:16;100333.47;;;12.68;88.69
72892;BME280;61032;50.782;6.818;2023-08-07T04:36:19;100341.75;;;12.68;88.58
72892;BME280;61032;50.782;6.818;2023-08-07T04:37:21;100347.38;;;12.71;88.46
72892;BME280;61032;50.782;6.818;2023-08-07T04:38:21;100331.16;;;12.70;88.20
72892;BME280;61032;50.782;6.818;2023-08-07T04:39:22;100341.41;;;12.69;88.77
72892;BME280;61032;50.782;6.818;2023-08-07T04:40:22;100342.66;;;12.72;88.16
72892;BME280;61032;50.782;6.818;2023-08-07T04:41:23;100345.19;;;12.77;88.35
72892;BME280;61032;50.782;6.818;2023-08-07T04:42:24;100329.53;;;12.81;87.74
72892;BME280;61032;50.782;6.818;2023-08-07T04:43:25;100337.13;;;12.84;86.66
72892;BME280;61032;50.782;6.818;2023-08-07T04:44:25;100346.09;;;12.81;86.67
72892;BME280;61032;50.782;6.818;2023-08-07T04:45:25;100336.31;;;12.84;86.57
72892;BME280;61032;50.782;6.818;2023-08-07T04:46:26;100335.53;;;12.83;86.57
72892;BME280;61032;50.782;6.818;2023-08-07T04:47:28;100333.00;;;12.78;86.44
72892;BME280;61032;50.782;6.818;2023-08-07T04:48:28;100341.38;;;12.82;86.23
72892;BME280;61032;50.782;6.818;2023-08-07T04:49:29;100337.81;;;12.81;85.97
72892;BME280;61032;50.782;6.818;2023-08-07T04:50:29;100347.69;;;12.82;86.12
72892;BME280;61032;50.782;6.818;2023-08-07T04:51:30;100341.72;;;12.80;86.58
72892;BME280;61032;50.782;6.818;2023-08-07T04:52:31;100342.66;;;12.84;86.46
72892;BME280;61032;50.782;6.818;2023-08-07T04:53:32;100352.19;;;12.87;86.08
72892;BME280;61032;50.782;6.818;2023-08-07T04:54:32;100345.88;;;12.86;86.55
72892;BME280;61032;50.782;6.818;2023-08-07T04:55:33;100351.84;;;12.88;85.59
72892;BME280;61032;50.782;6.818;2023-08-07T04:56:33;100351.09;;;12.91;85.64
72892;BME280;61032;50.782;6.818;2023-08-07T04:57:34;100347.69;;;12.82;85.37
72892;BME280;61032;50.782;6.818;2023-08-07T04:58:34;100346.66;;;12.87;85.74
72892;BME280;61032;50.782;6.818;2023-08-07T04:59:34;100342.38;;;12.89;84.84
72892;BME280;61032;50.782;6.818;2023-08-07T05:00:35;100343.63;;;12.92;84.70
72892;BME280;61032;50.782;6.818;2023-08-07T05:01:36;100344.91;;;12.94;84.19
72892;BME280;61032;50.782;6.818;2023-08-07T05:02:37;100348.13;;;12.96;84.34
72892;BME280;61032;50.782;6.818;2023-08-07T05:03:37;100333.16;;;12.97;84.00
72892;BME280;61032;50.782;6.818;2023-08-07T05:04:38;100350.41;;;12.94;84.00
72892;BME280;61032;50.782;6.818;2023-08-07T05:05:38;100346.50;;;12.95;83.88
72892;BME280;61032;50.782;6.818;2023-08-07T05:06:38;100346.50;;;12.95;83.77
72892;BME280;61032;50.782;6.818;2023-08-07T05:07:39;100348.91;;;12.97;83.79
72892;BME280;61032;50.782;6.818;2023-08-07T05:08:39;100351.44;;;13.02;83.65
72892;BME280;61032;50.782;6.818;2023-08-07T05:09:39;100351.31;;;12.98;83.86
72892;BME280;61032;50.782;6.818;2023-08-07T05:10:40;100339.59;;;13.01;84.07
72892;BME280;61032;50.782;6.818;2023-08-07T05:11:40;100340.53;;;12.93;83.75
72892;BME280;61032;50.782;6.818;2023-08-07T05:12:40;100353.28;;;12.98;83.94
72892;BME280;61032;50.782;6.818;2023-08-07T05:13:41;100352.94;;;12.99;83.96
72892;BME280;61032;50.782;6.818;2023-08-07T05:14:41;100351.09;;;13.03;83.53
72892;BME280;61032;50.782;6.818;2023-08-07T05:15:41;100346.81;;;13.06;82.85
72892;BME280;61032;50.782;6.818;2023-08-07T05:16:42;100346.03;;;13.05;83.52
72892;BME280;61032;50.782;6.818;2023-08-07T05:17:42;100358.69;;;13.06;83.15
72892;BME280;61032;50.782;6.818;2023-08-07T05:18:43;100349.13;;;13.04;83.14
72892;BME280;61032;50.782;6.818;2023-08-07T05:19:44;100351.31;;;12.98;83.36
72892;BME280;61032;50.782;6.818;2023-08-07T05:20:44;100353.41;;;13.01;83.50
72892;BME280;61032;50.782;6.818;2023-08-07T05:21:44;100347.88;;;13.01;83.09
72892;BME280;61032;50.782;6.818;2023-08-07T05:22:49;100359.38;;;13.03;82.99